Aviation Digital Data Service (ADDS)

Output produced by METARs form (1928 UTC 27 May 2017)
found at http://aviationweather.gov/adds/metars/
 
KJHW 271735Z 2718/2818 33005KT P6SM BKN035 
     FM280300 VRB03KT P6SM FEW020 
     FM280500 VRB03KT P6SM SKC 
     FM280900 VRB03KT 5SM BR SKC 
     FM281200 VRB03KT P6SM FEW090 
     FM281600 17008KT P6SM SCT250 AMD LTD TO CLD VIS AND WIND